sensor_id;sensor_type;location;lat;lon;timestamp;P1;durP1;ratioP1;P2;durP2;ratioP2
27265;SDS011;14766;51.380;13.762;2023-02-28T00:01:26;6.10;;;3.25;;
27265;SDS011;14766;51.380;13.762;2023-02-28T00:03:54;6.15;;;2.97;;
27265;SDS011;14766;51.380;13.762;2023-02-28T00:06:22;5.18;;;3.05;;
27265;SDS011;14766;51.380;13.762;2023-02-28T00:08:50;4.90;;;3.42;;
27265;SDS011;14766;51.380;13.762;2023-02-28T00:11:18;5.47;;;3.17;;
27265;SDS011;14766;51.380;13.762;2023-02-28T00:13:46;5.05;;;2.97;;
27265;SDS011;14766;51.380;13.762;2023-02-28T00:16:15;5.38;;;3.10;;
27265;SDS011;14766;51.380;13.762;2023-02-28T00:18:44;6.45;;;3.22;;
27265;SDS011;14766;51.380;13.762;2023-02-28T00:21:14;4.63;;;3.03;;
27265;SDS011;14766;51.380;13.762;2023-02-28T00:23:42;5.30;;;3.00;;
27265;SDS011;14766;51.380;13.762;2023-02-28T00:26:10;6.60;;;3.50;;
27265;SDS011;14766;51.380;13.762;2023-02-28T00:28:40;5.40;;;3.05;;
27265;SDS011;14766;51.380;13.762;2023-02-28T00:31:07;5.63;;;3.00;;
27265;SDS011;14766;51.380;13.762;2023-02-28T00:33:34;5.65;;;2.72;;
27265;SDS011;14766;51.380;13.762;2023-02-28T00:36:02;6.85;;;3.30;;
27265;SDS011;14766;51.380;13.762;2023-02-28T00:38:30;5.57;;;3.05;;
27265;SDS011;14766;51.380;13.762;2023-02-28T00:40:59;5.57;;;3.05;;
27265;SDS011;14766;51.380;13.762;2023-02-28T00:43:32;5.35;;;3.28;;
27265;SDS011;14766;51.380;13.762;2023-02-28T00:46:03;5.55;;;3.13;;
27265;SDS011;14766;51.380;13.762;2023-02-28T00:48:31;6.25;;;3.10;;
27265;SDS011;14766;51.380;13.762;2023-02-28T00:50:58;4.53;;;2.80;;
27265;SDS011;14766;51.380;13.762;2023-02-28T00:53:26;4.85;;;2.95;;
27265;SDS011;14766;51.380;13.762;2023-02-28T00:55:56;4.85;;;3.28;;
27265;SDS011;14766;51.380;13.762;2023-02-28T00:58:24;5.32;;;2.90;;
27265;SDS011;14766;51.380;13.762;2023-02-28T01:00:52;3.95;;;2.78;;
27265;SDS011;14766;51.380;13.762;2023-02-28T01:03:20;4.55;;;2.85;;
27265;SDS011;14766;51.380;13.762;2023-02-28T01:05:49;7.03;;;2.85;;
27265;SDS011;14766;51.380;13.762;2023-02-28T01:08:17;5.72;;;3.17;;
27265;SDS011;14766;51.380;13.762;2023-02-28T01:10:44;3.90;;;2.67;;
27265;SDS011;14766;51.380;13.762;2023-02-28T01:13:11;4.25;;;2.60;;
27265;SDS011;14766;51.380;13.762;2023-02-28T01:15:40;5.13;;;2.63;;
27265;SDS011;14766;51.380;13.762;2023-02-28T01:18:12;5.57;;;3.05;;
27265;SDS011;14766;51.380;13.762;2023-02-28T01:20:39;5.40;;;3.00;;
27265;SDS011;14766;51.380;13.762;2023-02-28T01:23:08;5.47;;;2.95;;
27265;SDS011;14766;51.380;13.762;2023-02-28T01:25:35;6.68;;;3.25;;
27265;SDS011;14766;51.380;13.762;2023-02-28T01:28:04;5.07;;;3.25;;
27265;SDS011;14766;51.380;13.762;2023-02-28T01:30:33;5.15;;;3.53;;
27265;SDS011;14766;51.380;13.762;2023-02-28T01:33:00;5.78;;;2.88;;
27265;SDS011;14766;51.380;13.762;2023-02-28T01:35:27;7.65;;;3.78;;
27265;SDS011;14766;51.380;13.762;2023-02-28T01:37:54;11.77;;;3.53;;
27265;SDS011;14766;51.380;13.762;2023-02-28T01:40:30;7.57;;;3.67;;
27265;SDS011;14766;51.380;13.762;2023-02-28T01:42:57;5.55;;;3.03;;
27265;SDS011;14766;51.380;13.762;2023-02-28T01:47:55;7.15;;;3.40;;
27265;SDS011;14766;51.380;13.762;2023-02-28T01:50:28;5.57;;;3.10;;
27265;SDS011;14766;51.380;13.762;2023-02-28T01:52:59;5.50;;;3.03;;
27265;SDS011;14766;51.380;13.762;2023-02-28T01:55:32;6.47;;;3.63;;
27265;SDS011;14766;51.380;13.762;2023-02-28T01:58:00;4.63;;;2.75;;
27265;SDS011;14766;51.380;13.762;2023-02-28T02:00:31;5.78;;;3.40;;
27265;SDS011;14766;51.380;13.762;2023-02-28T02:02:59;5.32;;;3.05;;
27265;SDS011;14766;51.380;13.762;2023-02-28T02:05:32;5.50;;;2.97;;
27265;SDS011;14766;51.380;13.762;2023-02-28T02:08:04;4.78;;;2.88;;
27265;SDS011;14766;51.380;13.762;2023-02-28T02:18:44;4.60;;;2.50;;
27265;SDS011;14766;51.380;13.762;2023-02-28T02:21:39;3.25;;;2.40;;
27265;SDS011;14766;51.380;13.762;2023-02-28T02:42:56;7.75;;;2.58;;
27265;SDS011;14766;51.380;13.762;2023-02-28T02:45:50;5.00;;;2.60;;
27265;SDS011;14766;51.380;13.762;2023-02-28T02:48:23;4.30;;;2.60;;
27265;SDS011;14766;51.380;13.762;2023-02-28T02:51:00;4.15;;;2.30;;
27265;SDS011;14766;51.380;13.762;2023-02-28T02:53:32;5.35;;;2.70;;
27265;SDS011;14766;51.380;13.762;2023-02-28T02:56:04;4.20;;;2.45;;
27265;SDS011;14766;51.380;13.762;2023-02-28T02:58:35;3.65;;;2.33;;
27265;SDS011;14766;51.380;13.762;2023-02-28T03:01:10;4.38;;;2.55;;
27265;SDS011;14766;51.380;13.762;2023-02-28T03:03:42;3.53;;;2.25;;
27265;SDS011;14766;51.380;13.762;2023-02-28T03:06:11;5.00;;;2.67;;
27265;SDS011;14766;51.380;13.762;2023-02-28T03:08:38;5.22;;;2.75;;
27265;SDS011;14766;51.380;13.762;2023-02-28T03:11:06;4.30;;;2.50;;
27265;SDS011;14766;51.380;13.762;2023-02-28T03:24:40;4.32;;;2.90;;
27265;SDS011;14766;51.380;13.762;2023-02-28T03:27:23;4.90;;;2.40;;
27265;SDS011;14766;51.380;13.762;2023-02-28T03:29:53;5.25;;;3.00;;
27265;SDS011;14766;51.380;13.762;2023-02-28T03:35:10;5.15;;;2.88;;
27265;SDS011;14766;51.380;13.762;2023-02-28T03:38:03;4.70;;;2.72;;
27265;SDS011;14766;51.380;13.762;2023-02-28T03:40:41;6.05;;;3.20;;
27265;SDS011;14766;51.380;13.762;2023-02-28T03:43:12;5.63;;;2.92;;
27265;SDS011;14766;51.380;13.762;2023-02-28T03:45:45;5.07;;;2.60;;
27265;SDS011;14766;51.380;13.762;2023-02-28T03:48:22;4.32;;;2.67;;
27265;SDS011;14766;51.380;13.762;2023-02-28T03:50:55;5.65;;;2.80;;
27265;SDS011;14766;51.380;13.762;2023-02-28T03:53:47;6.30;;;3.10;;
27265;SDS011;14766;51.380;13.762;2023-02-28T03:56:31;6.10;;;3.15;;
27265;SDS011;14766;51.380;13.762;2023-02-28T04:01:41;4.93;;;2.83;;
27265;SDS011;14766;51.380;13.762;2023-02-28T04:04:10;5.13;;;2.72;;
27265;SDS011;14766;51.380;13.762;2023-02-28T04:06:39;5.05;;;3.20;;
27265;SDS011;14766;51.380;13.762;2023-02-28T04:09:08;5.38;;;2.35;;
27265;SDS011;14766;51.380;13.762;2023-02-28T04:11:42;4.65;;;2.40;;
27265;SDS011;14766;51.380;13.762;2023-02-28T04:14:11;4.90;;;2.83;;
27265;SDS011;14766;51.380;13.762;2023-02-28T04:16:41;3.75;;;2.60;;
27265;SDS011;14766;51.380;13.762;2023-02-28T04:19:09;6.47;;;3.05;;
27265;SDS011;14766;51.380;13.762;2023-02-28T04:21:39;5.55;;;2.72;;
27265;SDS011;14766;51.380;13.762;2023-02-28T04:24:08;3.35;;;2.55;;
27265;SDS011;14766;51.380;13.762;2023-02-28T04:26:41;9.10;;;3.38;;
27265;SDS011;14766;51.380;13.762;2023-02-28T04:29:11;4.60;;;2.67;;
27265;SDS011;14766;51.380;13.762;2023-02-28T04:31:40;5.95;;;2.97;;
27265;SDS011;14766;51.380;13.762;2023-02-28T04:34:07;5.10;;;2.90;;
27265;SDS011;14766;51.380;13.762;2023-02-28T04:36:34;5.25;;;3.13;;
27265;SDS011;14766;51.380;13.762;2023-02-28T04:39:02;4.63;;;2.83;;
27265;SDS011;14766;51.380;13.762;2023-02-28T04:41:30;6.75;;;2.88;;
27265;SDS011;14766;51.380;13.762;2023-02-28T04:43:58;4.68;;;2.92;;
27265;SDS011;14766;51.380;13.762;2023-02-28T04:46:26;5.82;;;2.88;;
27265;SDS011;14766;51.380;13.762;2023-02-28T04:48:53;6.72;;;3.35;;
27265;SDS011;14766;51.380;13.762;2023-02-28T04:51:20;5.47;;;2.83;;
27265;SDS011;14766;51.380;13.762;2023-02-28T04:53:48;6.07;;;3.63;;
27265;SDS011;14766;51.380;13.762;2023-02-28T04:56:16;4.32;;;2.78;;
27265;SDS011;14766;51.380;13.762;2023-02-28T04:58:45;6.60;;;3.38;;
27265;SDS011;14766;51.380;13.762;2023-02-28T05:01:17;4.55;;;3.10;;
27265;SDS011;14766;51.380;13.762;2023-02-28T05:03:50;4.85;;;2.72;;
27265;SDS011;14766;51.380;13.762;2023-02-28T05:06:21;4.38;;;2.83;;
27265;SDS011;14766;51.380;13.762;2023-02-28T05:08:50;7.63;;;2.50;;
27265;SDS011;14766;51.380;13.762;2023-02-28T05:11:23;5.72;;;2.80;;
27265;SDS011;14766;51.380;13.762;2023-02-28T05:14:07;6.38;;;2.97;;
27265;SDS011;14766;51.380;13.762;2023-02-28T05:16:37;8.02;;;2.97;;
27265;SDS011;14766;51.380;13.762;2023-02-28T05:19:05;6.13;;;3.00;;
27265;SDS011;14766;51.380;13.762;2023-02-28T05:21:39;5.30;;;3.40;;
27265;SDS011;14766;51.380;13.762;2023-02-28T05:24:11;5.95;;;3.28;;
27265;SDS011;14766;51.380;13.762;2023-02-28T05:26:39;5.53;;;3.25;;
27265;SDS011;14766;51.380;13.762;2023-02-28T05:29:08;5.32;;;3.22;;
27265;SDS011;14766;51.380;13.762;2023-02-28T05:31:36;7.82;;;2.60;;
27265;SDS011;14766;51.380;13.762;2023-02-28T05:34:04;8.52;;;3.75;;
27265;SDS011;14766;51.380;13.762;2023-02-28T05:36:31;6.13;;;3.35;;
27265;SDS011;14766;51.380;13.762;2023-02-28T05:38:59;6.03;;;3.50;;
27265;SDS011;14766;51.380;13.762;2023-02-28T05:41:26;6.93;;;3.20;;
27265;SDS011;14766;51.380;13.762;2023-02-28T05:43:54;8.18;;;3.60;;
27265;SDS011;14766;51.380;13.762;2023-02-28T05:46:22;8.80;;;3.22;;
27265;SDS011;14766;51.380;13.762;2023-02-28T05:48:49;6.07;;;3.08;;
27265;SDS011;14766;51.380;13.762;2023-02-28T05:51:17;6.07;;;3.28;;
27265;SDS011;14766;51.380;13.762;2023-02-28T05:53:44;5.10;;;3.35;;
27265;SDS011;14766;51.380;13.762;2023-02-28T05:56:11;5.38;;;3.00;;
27265;SDS011;14766;51.380;13.762;2023-02-28T05:58:38;7.10;;;3.53;;
27265;SDS011;14766;51.380;13.762;2023-02-28T06:03:51;4.78;;;2.90;;
27265;SDS011;14766;51.380;13.762;2023-02-28T06:06:18;5.72;;;3.20;;
27265;SDS011;14766;51.380;13.762;2023-02-28T06:08:45;5.07;;;3.40;;
27265;SDS011;14766;51.380;13.762;2023-02-28T06:11:12;4.97;;;3.00;;
27265;SDS011;14766;51.380;13.762;2023-02-28T06:13:40;6.55;;;3.70;;
27265;SDS011;14766;51.380;13.762;2023-02-28T06:16:08;7.15;;;3.88;;
27265;SDS011;14766;51.380;13.762;2023-02-28T06:18:37;5.95;;;3.25;;
27265;SDS011;14766;51.380;13.762;2023-02-28T06:21:05;7.95;;;4.35;;
27265;SDS011;14766;51.380;13.762;2023-02-28T06:23:32;10.07;;;6.30;;
27265;SDS011;14766;51.380;13.762;2023-02-28T06:25:59;10.50;;;5.80;;
27265;SDS011;14766;51.380;13.762;2023-02-28T06:28:27;9.20;;;4.88;;
27265;SDS011;14766;51.380;13.762;2023-02-28T06:30:54;6.07;;;3.70;;
27265;SDS011;14766;51.380;13.762;2023-02-28T06:33:21;6.78;;;3.75;;
27265;SDS011;14766;51.380;13.762;2023-02-28T06:35:51;10.05;;;4.18;;
27265;SDS011;14766;51.380;13.762;2023-02-28T06:38:19;7.43;;;4.55;;
27265;SDS011;14766;51.380;13.762;2023-02-28T06:40:52;9.70;;;3.88;;
27265;SDS011;14766;51.380;13.762;2023-02-28T06:43:21;7.60;;;4.38;;
27265;SDS011;14766;51.380;13.762;2023-02-28T06:45:48;7.35;;;4.40;;
27265;SDS011;14766;51.380;13.762;2023-02-28T06:48:16;6.82;;;4.30;;
27265;SDS011;14766;51.380;13.762;2023-02-28T06:50:44;6.95;;;4.20;;
27265;SDS011;14766;51.380;13.762;2023-02-28T06:53:11;6.88;;;4.20;;
27265;SDS011;14766;51.380;13.762;2023-02-28T06:55:39;8.65;;;4.25;;
27265;SDS011;14766;51.380;13.762;2023-02-28T06:58:06;5.93;;;3.92;;
27265;SDS011;14766;51.380;13.762;2023-02-28T07:00:41;8.13;;;4.35;;
27265;SDS011;14766;51.380;13.762;2023-02-28T07:03:10;6.60;;;4.68;;
27265;SDS011;14766;51.380;13.762;2023-02-28T07:05:39;7.03;;;4.13;;
27265;SDS011;14766;51.380;13.762;2023-02-28T07:08:06;8.20;;;5.25;;
27265;SDS011;14766;51.380;13.762;2023-02-28T07:10:33;9.20;;;5.15;;
27265;SDS011;14766;51.380;13.762;2023-02-28T07:13:03;8.60;;;5.22;;
27265;SDS011;14766;51.380;13.762;2023-02-28T07:15:32;8.15;;;5.25;;
27265;SDS011;14766;51.380;13.762;2023-02-28T07:17:59;7.90;;;4.82;;
27265;SDS011;14766;51.380;13.762;2023-02-28T07:20:26;8.27;;;5.00;;
27265;SDS011;14766;51.380;13.762;2023-02-28T07:22:54;9.02;;;4.95;;
27265;SDS011;14766;51.380;13.762;2023-02-28T07:25:24;8.57;;;4.80;;
27265;SDS011;14766;51.380;13.762;2023-02-28T07:27:53;8.65;;;4.80;;
27265;SDS011;14766;51.380;13.762;2023-02-28T07:30:20;9.68;;;5.18;;
27265;SDS011;14766;51.380;13.762;2023-02-28T07:32:47;10.13;;;5.60;;
27265;SDS011;14766;51.380;13.762;2023-02-28T07:35:15;11.07;;;5.35;;
27265;SDS011;14766;51.380;13.762;2023-02-28T07:37:42;8.32;;;5.20;;
27265;SDS011;14766;51.380;13.762;2023-02-28T07:40:10;8.88;;;5.22;;
27265;SDS011;14766;51.380;13.762;2023-02-28T07:42:41;9.60;;;5.22;;
27265;SDS011;14766;51.380;13.762;2023-02-28T07:45:10;9.55;;;5.63;;
27265;SDS011;14766;51.380;13.762;2023-02-28T07:47:40;11.82;;;6.43;;
27265;SDS011;14766;51.380;13.762;2023-02-28T07:50:09;9.45;;;5.57;;
27265;SDS011;14766;51.380;13.762;2023-02-28T07:52:38;9.38;;;5.80;;
27265;SDS011;14766;51.380;13.762;2023-02-28T07:55:05;10.75;;;5.53;;
27265;SDS011;14766;51.380;13.762;2023-02-28T07:57:33;10.18;;;5.82;;
27265;SDS011;14766;51.380;13.762;2023-02-28T08:00:01;11.18;;;6.93;;
27265;SDS011;14766;51.380;13.762;2023-02-28T08:02:36;11.45;;;7.28;;
27265;SDS011;14766;51.380;13.762;2023-02-28T08:05:04;13.65;;;7.72;;
27265;SDS011;14766;51.380;13.762;2023-02-28T08:07:32;10.35;;;5.60;;
27265;SDS011;14766;51.380;13.762;2023-02-28T08:10:05;11.65;;;6.25;;
27265;SDS011;14766;51.380;13.762;2023-02-28T08:12:32;10.13;;;5.18;;
27265;SDS011;14766;51.380;13.762;2023-02-28T08:14:59;10.93;;;5.50;;
27265;SDS011;14766;51.380;13.762;2023-02-28T08:17:26;9.02;;;5.18;;
27265;SDS011;14766;51.380;13.762;2023-02-28T08:19:54;11.20;;;5.65;;
27265;SDS011;14766;51.380;13.762;2023-02-28T08:22:21;9.27;;;5.35;;
27265;SDS011;14766;51.380;13.762;2023-02-28T08:24:50;8.75;;;5.38;;
27265;SDS011;14766;51.380;13.762;2023-02-28T08:27:21;10.90;;;6.38;;
27265;SDS011;14766;51.380;13.762;2023-02-28T08:29:49;8.60;;;5.10;;
27265;SDS011;14766;51.380;13.762;2023-02-28T08:32:16;8.82;;;4.85;;
27265;SDS011;14766;51.380;13.762;2023-02-28T08:34:55;7.82;;;4.70;;
27265;SDS011;14766;51.380;13.762;2023-02-28T08:37:23;8.45;;;4.55;;
27265;SDS011;14766;51.380;13.762;2023-02-28T08:39:50;5.90;;;3.85;;
27265;SDS011;14766;51.380;13.762;2023-02-28T08:42:22;6.05;;;4.30;;
27265;SDS011;14766;51.380;13.762;2023-02-28T08:44:51;6.32;;;4.47;;
27265;SDS011;14766;51.380;13.762;2023-02-28T08:47:18;8.35;;;4.72;;
27265;SDS011;14766;51.380;13.762;2023-02-28T08:49:45;8.43;;;4.75;;
27265;SDS011;14766;51.380;13.762;2023-02-28T08:52:19;8.25;;;5.00;;
27265;SDS011;14766;51.380;13.762;2023-02-28T08:54:47;10.00;;;5.47;;
27265;SDS011;14766;51.380;13.762;2023-02-28T08:57:17;7.78;;;5.15;;
27265;SDS011;14766;51.380;13.762;2023-02-28T08:59:44;8.77;;;5.38;;
27265;SDS011;14766;51.380;13.762;2023-02-28T09:02:12;8.90;;;5.07;;
27265;SDS011;14766;51.380;13.762;2023-02-28T09:04:40;8.95;;;4.55;;
27265;SDS011;14766;51.380;13.762;2023-02-28T09:09:43;7.85;;;4.60;;
27265;SDS011;14766;51.380;13.762;2023-02-28T09:12:23;8.10;;;5.07;;
27265;SDS011;14766;51.380;13.762;2023-02-28T09:14:51;8.32;;;5.10;;
27265;SDS011;14766;51.380;13.762;2023-02-28T09:17:19;9.23;;;5.13;;
27265;SDS011;14766;51.380;13.762;2023-02-28T09:19:47;6.45;;;4.70;;
27265;SDS011;14766;51.380;13.762;2023-02-28T09:22:16;6.95;;;5.03;;
27265;SDS011;14766;51.380;13.762;2023-02-28T09:24:47;7.25;;;5.07;;
27265;SDS011;14766;51.380;13.762;2023-02-28T09:27:14;6.28;;;3.85;;
27265;SDS011;14766;51.380;13.762;2023-02-28T09:29:43;6.18;;;3.75;;
27265;SDS011;14766;51.380;13.762;2023-02-28T09:32:12;7.25;;;4.10;;
27265;SDS011;14766;51.380;13.762;2023-02-28T09:34:41;4.68;;;3.38;;
27265;SDS011;14766;51.380;13.762;2023-02-28T09:37:08;5.25;;;3.88;;
27265;SDS011;14766;51.380;13.762;2023-02-28T09:39:36;6.07;;;4.03;;
27265;SDS011;14766;51.380;13.762;2023-02-28T09:42:04;6.38;;;3.83;;
27265;SDS011;14766;51.380;13.762;2023-02-28T09:44:40;7.20;;;3.80;;
27265;SDS011;14766;51.380;13.762;2023-02-28T09:47:21;5.78;;;3.85;;
27265;SDS011;14766;51.380;13.762;2023-02-28T09:49:56;5.97;;;3.97;;
27265;SDS011;14766;51.380;13.762;2023-02-28T09:52:31;7.68;;;4.18;;
27265;SDS011;14766;51.380;13.762;2023-02-28T09:55:16;7.68;;;4.13;;
27265;SDS011;14766;51.380;13.762;2023-02-28T09:58:00;6.50;;;3.80;;
27265;SDS011;14766;51.380;13.762;2023-02-28T10:00:33;7.43;;;4.20;;
27265;SDS011;14766;51.380;13.762;2023-02-28T10:06:35;6.20;;;3.60;;
27265;SDS011;14766;51.380;13.762;2023-02-28T10:09:25;6.13;;;3.92;;
27265;SDS011;14766;51.380;13.762;2023-02-28T10:11:40;7.03;;;3.92;;
27265;SDS011;14766;51.380;13.762;2023-02-28T10:14:15;9.20;;;4.43;;
27265;SDS011;14766;51.380;13.762;2023-02-28T10:17:33;6.90;;;3.92;;
27265;SDS011;14766;51.380;13.762;2023-02-28T10:22:23;7.13;;;4.22;;
27265;SDS011;14766;51.380;13.762;2023-02-28T10:24:58;6.93;;;4.50;;
27265;SDS011;14766;51.380;13.762;2023-02-28T10:27:32;7.13;;;4.80;;
27265;SDS011;14766;51.380;13.762;2023-02-28T10:30:00;9.85;;;4.75;;
27265;SDS011;14766;51.380;13.762;2023-02-28T10:32:30;9.05;;;4.90;;
27265;SDS011;14766;51.380;13.762;2023-02-28T10:37:40;8.27;;;5.13;;
27265;SDS011;14766;51.380;13.762;2023-02-28T10:45:27;7.22;;;4.65;;
27265;SDS011;14766;51.380;13.762;2023-02-28T10:50:51;7.45;;;4.88;;
27265;SDS011;14766;51.380;13.762;2023-02-28T11:03:58;8.48;;;5.05;;
27265;SDS011;14766;51.380;13.762;2023-02-28T11:06:26;8.60;;;5.47;;
27265;SDS011;14766;51.380;13.762;2023-02-28T11:08:58;6.95;;;4.55;;
27265;SDS011;14766;51.380;13.762;2023-02-28T11:11:28;8.35;;;4.60;;
27265;SDS011;14766;51.380;13.762;2023-02-28T11:14:02;6.45;;;4.60;;
27265;SDS011;14766;51.380;13.762;2023-02-28T11:16:33;7.80;;;4.70;;
27265;SDS011;14766;51.380;13.762;2023-02-28T11:19:03;7.00;;;4.53;;
27265;SDS011;14766;51.380;13.762;2023-02-28T11:21:33;10.68;;;5.82;;
27265;SDS011;14766;51.380;13.762;2023-02-28T11:24:15;9.63;;;5.23;;
27265;SDS011;14766;51.380;13.762;2023-02-28T11:26:52;8.20;;;5.38;;
27265;SDS011;14766;51.380;13.762;2023-02-28T11:34:36;14.75;;;7.90;;
27265;SDS011;14766;51.380;13.762;2023-02-28T11:37:05;18.95;;;9.57;;
27265;SDS011;14766;51.380;13.762;2023-02-28T11:39:36;14.50;;;7.63;;
27265;SDS011;14766;51.380;13.762;2023-02-28T11:53:10;10.85;;;6.30;;
27265;SDS011;14766;51.380;13.762;2023-02-28T11:55:52;8.48;;;5.07;;
27265;SDS011;14766;51.380;13.762;2023-02-28T12:06:18;9.02;;;6.00;;
27265;SDS011;14766;51.380;13.762;2023-02-28T12:12:19;10.13;;;6.30;;
27265;SDS011;14766;51.380;13.762;2023-02-28T12:20:33;11.80;;;6.15;;
27265;SDS011;14766;51.380;13.762;2023-02-28T12:28:23;8.73;;;5.47;;
27265;SDS011;14766;51.380;13.762;2023-02-28T12:30:55;9.55;;;5.78;;
27265;SDS011;14766;51.380;13.762;2023-02-28T12:33:29;11.30;;;5.70;;
27265;SDS011;14766;51.380;13.762;2023-02-28T12:36:03;9.55;;;5.05;;
27265;SDS011;14766;51.380;13.762;2023-02-28T12:38:56;8.20;;;4.93;;
27265;SDS011;14766;51.380;13.762;2023-02-28T12:44:39;9.73;;;4.53;;
27265;SDS011;14766;51.380;13.762;2023-02-28T12:47:13;8.57;;;4.75;;
27265;SDS011;14766;51.380;13.762;2023-02-28T12:52:20;8.05;;;4.43;;
27265;SDS011;14766;51.380;13.762;2023-02-28T12:58:01;7.00;;;4.55;;
27265;SDS011;14766;51.380;13.762;2023-02-28T13:09:12;7.97;;;4.35;;
27265;SDS011;14766;51.380;13.762;2023-02-28T13:11:50;6.05;;;3.63;;
27265;SDS011;14766;51.380;13.762;2023-02-28T13:14:28;8.50;;;4.65;;
27265;SDS011;14766;51.380;13.762;2023-02-28T13:19:43;8.02;;;4.93;;
27265;SDS011;14766;51.380;13.762;2023-02-28T13:22:42;4.55;;;3.80;;
27265;SDS011;14766;51.380;13.762;2023-02-28T13:28:09;11.40;;;6.63;;
27265;SDS011;14766;51.380;13.762;2023-02-28T13:30:59;9.27;;;4.72;;
27265;SDS011;14766;51.380;13.762;2023-02-28T13:36:09;8.75;;;4.57;;
27265;SDS011;14766;51.380;13.762;2023-02-28T13:38:41;6.22;;;3.88;;
27265;SDS011;14766;51.380;13.762;2023-02-28T13:46:28;8.43;;;4.28;;
27265;SDS011;14766;51.380;13.762;2023-02-28T13:48:55;8.57;;;4.43;;
27265;SDS011;14766;51.380;13.762;2023-02-28T13:54:07;6.18;;;4.25;;
27265;SDS011;14766;51.380;13.762;2023-02-28T13:59:33;9.13;;;4.20;;
27265;SDS011;14766;51.380;13.762;2023-02-28T14:02:32;7.75;;;4.25;;
27265;SDS011;14766;51.380;13.762;2023-02-28T14:05:06;5.88;;;3.65;;
27265;SDS011;14766;51.380;13.762;2023-02-28T14:07:53;6.45;;;3.80;;
27265;SDS011;14766;51.380;13.762;2023-02-28T14:10:39;5.90;;;3.63;;
27265;SDS011;14766;51.380;13.762;2023-02-28T14:16:13;6.88;;;4.30;;
27265;SDS011;14766;51.380;13.762;2023-02-28T14:18:49;9.35;;;5.10;;
27265;SDS011;14766;51.380;13.762;2023-02-28T14:21:26;6.43;;;4.40;;
27265;SDS011;14766;51.380;13.762;2023-02-28T14:32:26;6.15;;;3.17;;
27265;SDS011;14766;51.380;13.762;2023-02-28T14:38:04;4.57;;;3.15;;
27265;SDS011;14766;51.380;13.762;2023-02-28T14:40:33;6.57;;;3.70;;
27265;SDS011;14766;51.380;13.762;2023-02-28T14:43:03;5.72;;;3.85;;
27265;SDS011;14766;51.380;13.762;2023-02-28T14:45:32;7.93;;;4.45;;
27265;SDS011;14766;51.380;13.762;2023-02-28T14:48:02;7.22;;;4.00;;
27265;SDS011;14766;51.380;13.762;2023-02-28T14:50:37;7.28;;;4.47;;
27265;SDS011;14766;51.380;13.762;2023-02-28T14:53:04;6.72;;;3.88;;
27265;SDS011;14766;51.380;13.762;2023-02-28T14:55:44;7.70;;;4.15;;
27265;SDS011;14766;51.380;13.762;2023-02-28T14:58:20;6.93;;;3.88;;
27265;SDS011;14766;51.380;13.762;2023-02-28T15:01:00;5.63;;;3.63;;
27265;SDS011;14766;51.380;13.762;2023-02-28T15:03:32;6.03;;;3.70;;
27265;SDS011;14766;51.380;13.762;2023-02-28T15:06:02;5.35;;;3.35;;
27265;SDS011;14766;51.380;13.762;2023-02-28T15:08:39;8.05;;;4.28;;
27265;SDS011;14766;51.380;13.762;2023-02-28T15:11:14;5.43;;;3.60;;
27265;SDS011;14766;51.380;13.762;2023-02-28T15:13:46;10.00;;;4.40;;
27265;SDS011;14766;51.380;13.762;2023-02-28T15:16:17;5.47;;;3.92;;
27265;SDS011;14766;51.380;13.762;2023-02-28T15:21:23;6.30;;;4.03;;
27265;SDS011;14766;51.380;13.762;2023-02-28T15:24:14;7.40;;;4.05;;
27265;SDS011;14766;51.380;13.762;2023-02-28T15:26:53;7.13;;;3.60;;
27265;SDS011;14766;51.380;13.762;2023-02-28T15:29:24;7.47;;;4.25;;
27265;SDS011;14766;51.380;13.762;2023-02-28T15:32:01;5.20;;;3.40;;
27265;SDS011;14766;51.380;13.762;2023-02-28T15:34:39;6.80;;;3.78;;
27265;SDS011;14766;51.380;13.762;2023-02-28T15:40:04;8.13;;;4.25;;
27265;SDS011;14766;51.380;13.762;2023-02-28T15:42:32;7.15;;;3.90;;
27265;SDS011;14766;51.380;13.762;2023-02-28T15:44:59;6.10;;;3.50;;
27265;SDS011;14766;51.380;13.762;2023-02-28T15:47:27;9.45;;;4.95;;
27265;SDS011;14766;51.380;13.762;2023-02-28T15:50:00;9.85;;;5.03;;
27265;SDS011;14766;51.380;13.762;2023-02-28T15:52:33;7.20;;;4.13;;
27265;SDS011;14766;51.380;13.762;2023-02-28T15:55:08;9.35;;;5.20;;
27265;SDS011;14766;51.380;13.762;2023-02-28T15:57:49;9.68;;;4.95;;
27265;SDS011;14766;51.380;13.762;2023-02-28T16:00:20;7.70;;;4.57;;
27265;SDS011;14766;51.380;13.762;2023-02-28T16:02:49;8.00;;;4.13;;
27265;SDS011;14766;51.380;13.762;2023-02-28T16:05:19;6.78;;;4.10;;
27265;SDS011;14766;51.380;13.762;2023-02-28T16:07:59;9.10;;;5.15;;
27265;SDS011;14766;51.380;13.762;2023-02-28T16:10:29;7.22;;;4.32;;
27265;SDS011;14766;51.380;13.762;2023-02-28T16:12:56;6.70;;;4.30;;
27265;SDS011;14766;51.380;13.762;2023-02-28T16:15:26;7.72;;;3.75;;
27265;SDS011;14766;51.380;13.762;2023-02-28T16:17:55;9.23;;;3.60;;
27265;SDS011;14766;51.380;13.762;2023-02-28T16:20:25;7.80;;;3.75;;
27265;SDS011;14766;51.380;13.762;2023-02-28T16:22:57;6.07;;;3.88;;
27265;SDS011;14766;51.380;13.762;2023-02-28T16:25:38;5.97;;;3.95;;
27265;SDS011;14766;51.380;13.762;2023-02-28T16:28:12;9.20;;;4.72;;
27265;SDS011;14766;51.380;13.762;2023-02-28T16:31:03;7.25;;;4.45;;
27265;SDS011;14766;51.380;13.762;2023-02-28T16:33:33;6.03;;;3.95;;
27265;SDS011;14766;51.380;13.762;2023-02-28T16:36:00;5.15;;;3.25;;
27265;SDS011;14766;51.380;13.762;2023-02-28T16:38:28;5.60;;;4.03;;
27265;SDS011;14766;51.380;13.762;2023-02-28T16:40:55;8.70;;;4.15;;
27265;SDS011;14766;51.380;13.762;2023-02-28T16:43:26;6.30;;;3.85;;
27265;SDS011;14766;51.380;13.762;2023-02-28T16:45:54;5.47;;;3.28;;
27265;SDS011;14766;51.380;13.762;2023-02-28T16:48:27;6.00;;;3.88;;
27265;SDS011;14766;51.380;13.762;2023-02-28T16:50:56;7.60;;;4.30;;
27265;SDS011;14766;51.380;13.762;2023-02-28T16:53:23;11.68;;;6.13;;
27265;SDS011;14766;51.380;13.762;2023-02-28T16:55:50;13.52;;;8.18;;
27265;SDS011;14766;51.380;13.762;2023-02-28T16:58:18;11.20;;;7.57;;
27265;SDS011;14766;51.380;13.762;2023-02-28T17:00:50;10.85;;;6.40;;
27265;SDS011;14766;51.380;13.762;2023-02-28T17:03:24;10.18;;;5.82;;
27265;SDS011;14766;51.380;13.762;2023-02-28T17:08:26;7.03;;;4.00;;
27265;SDS011;14766;51.380;13.762;2023-02-28T17:10:55;6.68;;;3.83;;
27265;SDS011;14766;51.380;13.762;2023-02-28T17:13:23;7.38;;;3.88;;
27265;SDS011;14766;51.380;13.762;2023-02-28T17:15:50;8.25;;;3.85;;
27265;SDS011;14766;51.380;13.762;2023-02-28T17:18:17;7.63;;;4.18;;
27265;SDS011;14766;51.380;13.762;2023-02-28T17:20:45;9.30;;;4.55;;
27265;SDS011;14766;51.380;13.762;2023-02-28T17:23:27;10.27;;;5.10;;
27265;SDS011;14766;51.380;13.762;2023-02-28T17:25:55;9.45;;;4.72;;
27265;SDS011;14766;51.380;13.762;2023-02-28T17:28:23;7.97;;;4.10;;
27265;SDS011;14766;51.380;13.762;2023-02-28T17:30:50;8.90;;;4.78;;
27265;SDS011;14766;51.380;13.762;2023-02-28T17:33:18;7.78;;;4.07;;
27265;SDS011;14766;51.380;13.762;2023-02-28T17:35:45;8.27;;;4.20;;
27265;SDS011;14766;51.380;13.762;2023-02-28T17:38:14;9.90;;;4.13;;
27265;SDS011;14766;51.380;13.762;2023-02-28T17:40:43;8.73;;;4.60;;
27265;SDS011;14766;51.380;13.762;2023-02-28T17:43:11;10.07;;;4.10;;
27265;SDS011;14766;51.380;13.762;2023-02-28T17:45:38;8.60;;;4.57;;
27265;SDS011;14766;51.380;13.762;2023-02-28T17:48:05;6.13;;;3.55;;
27265;SDS011;14766;51.380;13.762;2023-02-28T17:50:32;8.25;;;4.50;;
27265;SDS011;14766;51.380;13.762;2023-02-28T17:53:00;6.03;;;3.53;;